ZW-0041 weather

Mana West
Mana Pools Area, Zimbabwe

Public forecast

Using degrees Celsius for public forecast. Weather courtesy of forecast.io.

METAR (pilot weather report)

Report is more than 6 hours old.

Closest report is Kariba International Airport, 44.3 nm (82.1 km) SSW. Retrieved 2019/09/15 12:00 UTC (2 days ago):

FVKB 151200Z 26006KT CAVOK 34/09 Q1014

TAF (pilot weather forecast)

Forecast is more than 6 hours old.

Closest forecast is Royal Zambesi Lodge Airstrip, 9.9 nm (18.3 km) NE. Retrieved 2019/09/17 12:00 UTC (7 hours ago):

TAF FLRZ 171000Z 1712/1818 11010KT 9000 HZ NSC FM171800 10005KT CAVOK BECMG 1804/1806 10010KT 8000 HZ SKC